createdAt,value
2023-01-21T00:00:00.417Z,28.7
2023-01-21T00:01:00.539Z,28.7
2023-01-21T00:02:00.448Z,28.7
2023-01-21T00:03:00.440Z,33.4
2023-01-21T00:04:00.440Z,33.4
2023-01-21T00:05:00.417Z,33.4
2023-01-21T00:06:01.246Z,33.4
2023-01-21T00:07:00.383Z,33.4
2023-01-21T00:08:02.572Z,34.5
2023-01-21T00:09:00.373Z,34.5
2023-01-21T00:10:00.419Z,34.5
2023-01-21T00:11:04.581Z,34.5
2023-01-21T00:12:00.386Z,34.5
2023-01-21T00:13:00.790Z,31.2
2023-01-21T00:14:00.397Z,31.2
2023-01-21T00:15:00.373Z,31.2
2023-01-21T00:16:00.928Z,31.2
2023-01-21T00:17:00.470Z,31.2
2023-01-21T00:18:00.424Z,32.5
2023-01-21T00:19:00.371Z,32.5
2023-01-21T00:20:01.473Z,32.5
2023-01-21T00:21:00.393Z,32.5
2023-01-21T00:22:00.401Z,32.5
2023-01-21T00:23:00.828Z,33.0
2023-01-21T00:24:00.350Z,33.0
2023-01-21T00:25:01.466Z,33.0
2023-01-21T00:26:02.437Z,33.0
2023-01-21T00:27:00.437Z,33.0
2023-01-21T00:28:00.416Z,32.0
2023-01-21T00:29:00.421Z,32.0
2023-01-21T00:30:00.386Z,32.0
2023-01-21T00:31:03.274Z,32.0
2023-01-21T00:32:00.385Z,32.0
2023-01-21T00:33:00.347Z,32.1
2023-01-21T00:34:00.387Z,32.1
2023-01-21T00:35:00.392Z,32.1
2023-01-21T00:36:04.613Z,32.1
2023-01-21T00:37:00.412Z,32.1
2023-01-21T00:38:00.368Z,33.2
2023-01-21T00:39:00.405Z,33.2
2023-01-21T00:40:00.626Z,33.2
2023-01-21T00:41:03.876Z,33.2
2023-01-21T00:42:01.150Z,33.2
2023-01-21T00:43:00.420Z,29.9
2023-01-21T00:44:00.364Z,29.9
2023-01-21T00:45:00.401Z,29.9
2023-01-21T00:46:00.601Z,29.9
2023-01-21T00:47:00.383Z,29.9
2023-01-21T00:48:00.379Z,29.4
2023-01-21T00:49:00.481Z,29.4
2023-01-21T00:50:00.414Z,29.4
2023-01-21T00:51:00.779Z,29.4
2023-01-21T00:52:00.614Z,29.4
2023-01-21T00:53:00.382Z,31.8
2023-01-21T00:54:00.451Z,31.8
2023-01-21T00:55:00.371Z,31.8
2023-01-21T00:56:03.073Z,31.8
2023-01-21T00:57:00.442Z,31.8
2023-01-21T00:58:00.460Z,30.8
2023-01-21T00:59:00.371Z,30.8
2023-01-21T01:00:00.384Z,30.8
2023-01-21T01:01:06.022Z,30.8
2023-01-21T01:02:00.365Z,30.8
2023-01-21T01:03:00.557Z,30.4
2023-01-21T01:04:00.415Z,30.4
2023-01-21T01:05:00.357Z,30.4
2023-01-21T01:06:04.215Z,30.4
2023-01-21T01:07:00.377Z,30.4
2023-01-21T01:08:00.407Z,29.3
2023-01-21T01:09:00.376Z,29.3
2023-01-21T01:10:00.443Z,29.3
2023-01-21T01:11:01.082Z,29.3
2023-01-21T01:12:00.376Z,29.3
2023-01-21T01:13:00.389Z,31.1
2023-01-21T01:14:00.409Z,31.1
2023-01-21T01:15:01.148Z,31.1
2023-01-21T01:16:01.097Z,31.1
2023-01-21T01:17:00.378Z,31.1
2023-01-21T01:18:00.387Z,27.2
2023-01-21T01:19:00.371Z,27.2
2023-01-21T01:20:00.615Z,27.2
2023-01-21T01:21:01.697Z,27.2
2023-01-21T01:22:00.360Z,27.2
2023-01-21T01:23:00.391Z,28.8
2023-01-21T01:24:00.412Z,28.8
2023-01-21T01:25:00.440Z,28.8
2023-01-21T01:26:03.496Z,28.8
2023-01-21T01:27:00.404Z,28.8
2023-01-21T01:28:00.422Z,25.9
2023-01-21T01:29:01.281Z,25.9
2023-01-21T01:30:00.390Z,25.9
2023-01-21T01:31:03.811Z,25.9
2023-01-21T01:32:00.384Z,25.9
2023-01-21T01:33:00.847Z,30.3
2023-01-21T01:34:00.374Z,30.3
2023-01-21T01:35:00.418Z,30.3
2023-01-21T01:36:03.701Z,30.3
2023-01-21T01:37:00.406Z,30.3
2023-01-21T01:38:00.379Z,29.3
2023-01-21T01:39:00.401Z,29.3
2023-01-21T01:40:00.371Z,29.3
2023-01-21T01:41:00.793Z,29.3
2023-01-21T01:42:00.359Z,29.3
2023-01-21T01:43:00.507Z,29.8
2023-01-21T01:44:04.216Z,29.8
2023-01-21T01:45:05.617Z,29.8
2023-01-21T01:46:00.438Z,29.8
2023-01-21T01:47:03.170Z,29.8
2023-01-21T01:48:02.325Z,32.3
2023-01-21T01:49:05.811Z,32.3
2023-01-21T01:50:01.672Z,32.3
2023-01-21T01:51:03.291Z,32.3
2023-01-21T01:52:03.873Z,32.3
2023-01-21T01:53:01.057Z,33.2
2023-01-21T01:54:01.539Z,33.2
2023-01-21T01:55:02.255Z,33.2
2023-01-21T01:56:01.359Z,33.2
2023-01-21T01:57:03.918Z,33.2
2023-01-21T01:58:03.570Z,29.0
2023-01-21T01:59:00.381Z,29.0
2023-01-21T02:00:04.448Z,29.0
2023-01-21T02:01:00.417Z,29.0
2023-01-21T02:02:05.783Z,29.0
2023-01-21T02:03:00.517Z,30.5
2023-01-21T02:04:03.978Z,30.5
2023-01-21T02:05:04.905Z,30.5
2023-01-21T02:06:00.932Z,30.5
2023-01-21T02:07:01.123Z,30.5
2023-01-21T02:08:00.951Z,27.0
2023-01-21T02:09:00.487Z,27.0
2023-01-21T02:10:01.224Z,27.0
2023-01-21T02:11:01.226Z,27.0
2023-01-21T02:12:03.144Z,27.0
2023-01-21T02:13:01.371Z,31.2
2023-01-21T02:14:00.455Z,31.2
2023-01-21T02:15:00.967Z,31.2
2023-01-21T02:16:10.192Z,31.2
2023-01-21T02:17:17.779Z,31.2
2023-01-21T02:18:14.854Z,28.9
2023-01-21T02:19:20.268Z,28.9
2023-01-21T02:20:20.278Z,28.9
2023-01-21T02:21:20.307Z,28.9
2023-01-21T02:22:06.486Z,28.9
2023-01-21T02:23:13.410Z,31.0
2023-01-21T02:24:20.291Z,31.0
2023-01-21T02:25:11.337Z,31.0
2023-01-21T02:26:20.293Z,31.0
2023-01-21T02:27:10.365Z,31.0
2023-01-21T02:28:12.066Z,28.3
2023-01-21T02:29:20.315Z,28.3
2023-01-21T02:30:02.382Z,28.3
2023-01-21T02:31:04.772Z,28.3
2023-01-21T02:32:20.312Z,28.1
2023-01-21T02:33:10.329Z,28.1
2023-01-21T02:34:10.309Z,28.1
2023-01-21T02:35:09.584Z,28.1
2023-01-21T02:36:10.345Z,28.1
2023-01-21T02:37:01.396Z,28.1
2023-01-21T02:38:11.122Z,24.5
2023-01-21T02:39:10.305Z,24.5
2023-01-21T02:40:09.245Z,24.5
2023-01-21T02:41:13.592Z,24.5
2023-01-21T02:42:10.303Z,24.5
2023-01-21T02:43:06.677Z,25.1
2023-01-21T02:44:06.909Z,25.1
2023-01-21T02:45:11.729Z,25.1
2023-01-21T02:46:14.691Z,25.1
2023-01-21T02:47:20.305Z,20.3
2023-01-21T02:48:13.644Z,20.3
2023-01-21T02:49:08.585Z,20.3
2023-01-21T02:50:06.038Z,20.3
2023-01-21T02:51:00.423Z,20.3
2023-01-21T02:52:00.372Z,20.3
2023-01-21T02:53:02.010Z,20.4
2023-01-21T02:54:12.274Z,20.4
2023-01-21T02:55:01.694Z,20.4
2023-01-21T02:56:06.949Z,20.4
2023-01-21T02:57:01.133Z,20.4
2023-01-21T02:58:09.527Z,24.4
2023-01-21T02:59:02.542Z,24.4
2023-01-21T03:00:04.979Z,24.4
2023-01-21T03:01:20.315Z,24.4
2023-01-21T03:02:20.325Z,24.2
2023-01-21T03:03:01.356Z,24.2
2023-01-21T03:04:17.332Z,24.2
2023-01-21T03:05:15.658Z,24.2
2023-01-21T03:06:20.265Z,24.2
2023-01-21T03:07:07.798Z,24.2
2023-01-21T03:08:11.700Z,22.2
2023-01-21T03:09:14.066Z,22.2
2023-01-21T03:10:12.171Z,22.2
2023-01-21T03:11:12.096Z,22.2
2023-01-21T03:12:20.299Z,21.1
2023-01-21T03:13:04.546Z,21.1
2023-01-21T03:14:07.636Z,21.1
2023-01-21T03:15:13.927Z,21.1
2023-01-21T03:16:02.216Z,21.1
2023-01-21T03:17:07.922Z,19.3
2023-01-21T03:18:07.264Z,19.3
2023-01-21T03:19:05.587Z,19.3
2023-01-21T03:20:10.152Z,19.3
2023-01-21T03:21:05.191Z,19.3
2023-01-21T03:22:04.934Z,19.3
2023-01-21T03:23:05.347Z,14.2
2023-01-21T03:24:01.541Z,14.2
2023-01-21T03:25:00.576Z,14.2
2023-01-21T03:26:01.525Z,14.2
2023-01-21T03:27:02.968Z,14.2
2023-01-21T03:28:06.695Z,17.4
2023-01-21T03:29:08.414Z,17.4
2023-01-21T03:30:10.061Z,17.4
2023-01-21T03:31:04.938Z,17.4
2023-01-21T03:32:04.526Z,17.5
2023-01-21T03:33:01.721Z,17.5
2023-01-21T03:34:05.696Z,17.5
2023-01-21T03:35:02.627Z,17.5
2023-01-21T03:36:07.603Z,17.5
2023-01-21T03:37:06.455Z,19.2
2023-01-21T03:38:11.358Z,19.2
2023-01-21T03:39:07.041Z,19.2
2023-01-21T03:40:09.835Z,19.2
2023-01-21T03:41:06.805Z,19.2
2023-01-21T03:42:01.462Z,19.2
2023-01-21T03:43:01.297Z,17.2
2023-01-21T03:44:00.429Z,17.2
2023-01-21T03:45:00.849Z,17.2
2023-01-21T03:46:08.644Z,17.2
2023-01-21T03:47:20.288Z,18.2
2023-01-21T03:48:07.972Z,18.2
2023-01-21T03:49:15.318Z,18.2
2023-01-21T03:50:07.092Z,18.2
2023-01-21T03:51:06.320Z,18.2
2023-01-21T03:52:02.720Z,19.6
2023-01-21T03:53:00.684Z,19.6
2023-01-21T03:54:00.408Z,19.6
2023-01-21T03:55:00.505Z,19.6
2023-01-21T03:56:00.414Z,19.6
2023-01-21T03:57:00.551Z,16.3
2023-01-21T03:58:00.417Z,16.3
2023-01-21T03:59:00.441Z,16.3
2023-01-21T04:00:00.561Z,16.3
2023-01-21T04:01:00.718Z,16.3
2023-01-21T04:02:00.399Z,19.0
2023-01-21T04:03:00.399Z,19.0
2023-01-21T04:04:00.429Z,19.0
2023-01-21T04:05:00.392Z,19.0
2023-01-21T04:06:00.357Z,19.0
2023-01-21T04:07:00.458Z,19.4
2023-01-21T04:08:00.541Z,19.4
2023-01-21T04:09:00.496Z,19.4
2023-01-21T04:10:00.367Z,19.4
2023-01-21T04:11:00.371Z,19.4
2023-01-21T04:12:00.380Z,21.1
2023-01-21T04:13:00.441Z,21.1
2023-01-21T04:14:00.396Z,21.1
2023-01-21T04:15:00.365Z,21.1
2023-01-21T04:16:00.424Z,21.1
2023-01-21T04:17:00.556Z,21.1
2023-01-21T04:18:00.361Z,21.1
2023-01-21T04:19:00.444Z,21.1
2023-01-21T04:20:00.389Z,21.1
2023-01-21T04:21:00.443Z,21.1
2023-01-21T04:22:00.511Z,19.8
2023-01-21T04:23:00.383Z,19.8
2023-01-21T04:24:00.416Z,19.8
2023-01-21T04:25:00.427Z,19.8
2023-01-21T04:26:00.391Z,19.8
2023-01-21T04:27:00.593Z,21.2
2023-01-21T04:28:00.378Z,21.2
2023-01-21T04:29:00.457Z,21.2
2023-01-21T04:30:00.424Z,21.2
2023-01-21T04:31:00.626Z,21.2
2023-01-21T04:32:00.452Z,18.9
2023-01-21T04:33:00.357Z,18.9
2023-01-21T04:34:00.448Z,18.9
2023-01-21T04:35:00.350Z,18.9
2023-01-21T04:36:00.468Z,18.9
2023-01-21T04:37:00.423Z,19.6
2023-01-21T04:38:00.635Z,19.6
2023-01-21T04:39:00.339Z,19.6
2023-01-21T04:40:00.345Z,19.6
2023-01-21T04:41:00.421Z,19.6
2023-01-21T04:42:00.352Z,19.9
2023-01-21T04:43:00.429Z,19.9
2023-01-21T04:44:00.316Z,19.9
2023-01-21T04:45:00.339Z,19.9
2023-01-21T04:46:00.428Z,19.9
2023-01-21T04:47:00.351Z,18.8
2023-01-21T04:48:00.385Z,18.8
2023-01-21T04:49:00.367Z,18.8
2023-01-21T04:50:00.368Z,18.8
2023-01-21T04:51:00.435Z,18.8
2023-01-21T04:52:00.344Z,19.8
2023-01-21T04:53:00.308Z,19.8
2023-01-21T04:54:00.333Z,19.8
2023-01-21T04:55:00.347Z,19.8
2023-01-21T04:56:00.329Z,19.8
2023-01-21T04:57:00.488Z,20.2
2023-01-21T04:58:00.352Z,20.2
2023-01-21T04:59:00.358Z,20.2
2023-01-21T05:00:00.525Z,20.2
2023-01-21T05:01:00.365Z,20.2
2023-01-21T05:02:00.334Z,21.0
2023-01-21T05:03:00.351Z,21.0
2023-01-21T05:04:00.325Z,21.0
2023-01-21T05:05:00.466Z,21.0
2023-01-21T05:06:00.381Z,21.0
2023-01-21T05:07:00.354Z,20.2
2023-01-21T05:08:00.392Z,20.2
2023-01-21T05:09:00.415Z,20.2
2023-01-21T05:10:00.431Z,20.2
2023-01-21T05:11:00.395Z,20.2
2023-01-21T05:12:00.418Z,18.0
2023-01-21T05:13:00.363Z,18.0
2023-01-21T05:14:00.351Z,18.0
2023-01-21T05:15:00.378Z,18.0
2023-01-21T05:16:03.334Z,18.0
2023-01-21T05:17:00.566Z,19.2
2023-01-21T05:18:00.452Z,19.2
2023-01-21T05:19:00.374Z,19.2
2023-01-21T05:20:00.495Z,19.2
2023-01-21T05:21:00.452Z,19.2
2023-01-21T05:22:00.397Z,18.9
2023-01-21T05:23:00.430Z,18.9
2023-01-21T05:24:00.403Z,18.9
2023-01-21T05:25:00.423Z,18.9
2023-01-21T05:26:00.422Z,18.9
2023-01-21T05:27:00.428Z,19.0
2023-01-21T05:28:00.437Z,19.0
2023-01-21T05:29:00.423Z,19.0
2023-01-21T05:30:00.448Z,19.0
2023-01-21T05:31:00.750Z,19.0
2023-01-21T05:32:00.491Z,17.9
2023-01-21T05:33:00.368Z,17.9
2023-01-21T05:34:00.472Z,17.9
2023-01-21T05:35:00.398Z,17.9
2023-01-21T05:36:01.766Z,17.9
2023-01-21T05:37:00.422Z,18.9
2023-01-21T05:38:00.577Z,18.9
2023-01-21T05:39:00.805Z,18.9
2023-01-21T05:40:00.394Z,18.9
2023-01-21T05:41:01.754Z,18.9
2023-01-21T05:42:00.712Z,19.6
2023-01-21T05:43:00.382Z,19.6
2023-01-21T05:44:00.379Z,19.6
2023-01-21T05:45:00.399Z,19.6
2023-01-21T05:46:00.411Z,19.6
2023-01-21T05:47:00.403Z,18.2
2023-01-21T05:48:00.370Z,18.2
2023-01-21T05:49:01.018Z,18.2
2023-01-21T05:50:00.376Z,18.2
2023-01-21T05:51:00.503Z,18.2
2023-01-21T05:52:00.537Z,19.2
2023-01-21T05:53:00.430Z,19.2
2023-01-21T05:54:00.377Z,19.2
2023-01-21T05:55:02.567Z,19.2
2023-01-21T05:56:00.408Z,19.2
2023-01-21T05:57:00.593Z,17.7
2023-01-21T05:58:00.381Z,17.7
2023-01-21T05:59:00.371Z,17.7
2023-01-21T06:00:00.387Z,17.7
2023-01-21T06:01:00.382Z,17.7
2023-01-21T06:02:00.909Z,15.5
2023-01-21T06:03:00.606Z,15.5
2023-01-21T06:04:00.434Z,15.5
2023-01-21T06:05:00.486Z,15.5
2023-01-21T06:06:00.461Z,15.5
2023-01-21T06:07:00.423Z,18.9
2023-01-21T06:08:00.420Z,18.9
2023-01-21T06:09:00.434Z,18.9
2023-01-21T06:10:00.389Z,18.9
2023-01-21T06:11:00.416Z,18.9
2023-01-21T06:12:00.384Z,17.8
2023-01-21T06:13:00.446Z,17.8
2023-01-21T06:14:00.381Z,17.8
2023-01-21T06:15:00.563Z,17.8
2023-01-21T06:16:00.452Z,17.8
2023-01-21T06:17:00.385Z,17.4
2023-01-21T06:18:00.399Z,17.4
2023-01-21T06:19:00.393Z,17.4
2023-01-21T06:20:00.367Z,17.4
2023-01-21T06:21:00.677Z,17.4
2023-01-21T06:22:00.407Z,16.9
2023-01-21T06:23:01.304Z,16.9
2023-01-21T06:24:00.390Z,16.9
2023-01-21T06:25:00.415Z,16.9
2023-01-21T06:26:00.936Z,16.9
2023-01-21T06:27:00.392Z,17.0
2023-01-21T06:28:00.378Z,17.0
2023-01-21T06:29:00.371Z,17.0
2023-01-21T06:30:00.385Z,17.0
2023-01-21T06:31:00.498Z,17.0
2023-01-21T06:32:00.480Z,17.4
2023-01-21T06:33:00.381Z,17.4
2023-01-21T06:34:00.401Z,17.4
2023-01-21T06:35:00.907Z,17.4
2023-01-21T06:36:00.397Z,17.4
2023-01-21T06:37:00.421Z,16.8
2023-01-21T06:38:00.382Z,16.8
2023-01-21T06:39:00.401Z,16.8
2023-01-21T06:40:00.399Z,16.8
2023-01-21T06:41:01.375Z,16.8
2023-01-21T06:42:00.409Z,17.6
2023-01-21T06:43:00.400Z,17.6
2023-01-21T06:44:00.390Z,17.6
2023-01-21T06:45:00.536Z,17.6
2023-01-21T06:46:00.487Z,17.6
2023-01-21T06:47:01.439Z,17.8
2023-01-21T06:48:00.496Z,17.8
2023-01-21T06:49:00.435Z,17.8
2023-01-21T06:50:00.382Z,17.8
2023-01-21T06:51:00.421Z,17.8
2023-01-21T06:52:00.397Z,17.5
2023-01-21T06:53:00.400Z,17.5
2023-01-21T06:54:00.426Z,17.5
2023-01-21T06:55:00.387Z,17.5
2023-01-21T06:56:00.398Z,17.5
2023-01-21T06:57:00.692Z,17.3
2023-01-21T06:58:00.373Z,17.3
2023-01-21T06:59:00.378Z,17.3
2023-01-21T07:00:00.382Z,17.3
2023-01-21T07:01:00.370Z,17.3
2023-01-21T07:02:00.435Z,15.3
2023-01-21T07:03:00.438Z,15.3
2023-01-21T07:04:00.442Z,15.3
2023-01-21T07:05:00.490Z,15.3
2023-01-21T07:06:00.388Z,15.3
2023-01-21T07:07:00.418Z,15.7
2023-01-21T07:08:00.380Z,15.7
2023-01-21T07:09:00.410Z,15.7
2023-01-21T07:10:00.426Z,15.7
2023-01-21T07:11:00.840Z,15.7
2023-01-21T07:12:00.355Z,16.0
2023-01-21T07:13:00.377Z,16.0
2023-01-21T07:14:00.494Z,16.0
2023-01-21T07:15:00.359Z,16.0
2023-01-21T07:16:01.086Z,16.0
2023-01-21T07:17:00.376Z,14.6
2023-01-21T07:18:00.370Z,14.6
2023-01-21T07:19:00.424Z,14.6
2023-01-21T07:20:00.366Z,14.6
2023-01-21T07:21:00.465Z,14.6
2023-01-21T07:22:00.401Z,16.1
2023-01-21T07:23:00.414Z,16.1
2023-01-21T07:24:00.361Z,16.1
2023-01-21T07:25:01.032Z,16.1
2023-01-21T07:26:00.381Z,16.1
2023-01-21T07:27:00.439Z,15.5
2023-01-21T07:28:00.651Z,15.5
2023-01-21T07:29:01.981Z,15.5
2023-01-21T07:30:00.381Z,15.5
2023-01-21T07:31:01.763Z,15.5
2023-01-21T07:32:00.456Z,13.1
2023-01-21T07:33:05.380Z,13.1
2023-01-21T07:34:00.913Z,13.1
2023-01-21T07:35:00.373Z,13.1
2023-01-21T07:36:00.473Z,13.1
2023-01-21T07:37:00.417Z,11.6
2023-01-21T07:38:00.425Z,11.6
2023-01-21T07:39:00.409Z,11.6
2023-01-21T07:40:00.400Z,11.6
2023-01-21T07:41:00.377Z,11.6
2023-01-21T07:42:00.376Z,12.5
2023-01-21T07:43:00.361Z,12.5
2023-01-21T07:44:00.374Z,12.5
2023-01-21T07:45:00.478Z,12.5
2023-01-21T07:46:00.561Z,12.5
2023-01-21T07:47:00.386Z,13.1
2023-01-21T07:48:00.523Z,13.1
2023-01-21T07:49:00.464Z,13.1
2023-01-21T07:50:00.396Z,13.1
2023-01-21T07:51:00.518Z,13.1
2023-01-21T07:52:00.428Z,14.9
2023-01-21T07:53:00.381Z,14.9
2023-01-21T07:54:00.397Z,14.9
2023-01-21T07:55:00.369Z,14.9
2023-01-21T07:56:08.041Z,13.3
2023-01-21T07:57:00.586Z,13.3
2023-01-21T07:58:00.381Z,13.3
2023-01-21T07:59:00.381Z,13.3
2023-01-21T08:00:00.435Z,13.3
2023-01-21T08:01:04.025Z,13.3
2023-01-21T08:02:00.599Z,13.2
2023-01-21T08:03:00.390Z,13.2
2023-01-21T08:04:00.733Z,13.2
2023-01-21T08:05:00.581Z,13.2
2023-01-21T08:06:00.599Z,13.2
2023-01-21T08:07:00.377Z,13.1
2023-01-21T08:08:00.415Z,13.1
2023-01-21T08:09:00.421Z,13.1
2023-01-21T08:10:00.369Z,13.1
2023-01-21T08:11:00.544Z,13.1
2023-01-21T08:12:00.365Z,13.0
2023-01-21T08:13:00.384Z,13.0
2023-01-21T08:14:00.431Z,13.0
2023-01-21T08:15:00.458Z,13.0
2023-01-21T08:16:00.445Z,13.0
2023-01-21T08:17:00.930Z,13.3
2023-01-21T08:18:00.479Z,13.3
2023-01-21T08:19:00.396Z,13.3
2023-01-21T08:20:00.445Z,13.3
2023-01-21T08:21:00.371Z,13.3
2023-01-21T08:22:00.392Z,12.7
2023-01-21T08:23:00.626Z,12.7
2023-01-21T08:24:00.375Z,12.7
2023-01-21T08:25:00.992Z,12.7
2023-01-21T08:26:01.732Z,12.8
2023-01-21T08:27:00.417Z,12.8
2023-01-21T08:28:00.406Z,12.8
2023-01-21T08:29:00.396Z,12.8
2023-01-21T08:30:00.407Z,12.8
2023-01-21T08:31:06.820Z,11.1
2023-01-21T08:32:00.570Z,11.1
2023-01-21T08:33:00.365Z,11.1
2023-01-21T08:34:00.571Z,11.1
2023-01-21T08:35:00.348Z,11.1
2023-01-21T08:36:01.493Z,11.5
2023-01-21T08:37:00.390Z,11.5
2023-01-21T08:38:00.922Z,11.5
2023-01-21T08:39:00.329Z,11.5
2023-01-21T08:40:00.409Z,11.5
2023-01-21T08:41:00.570Z,11.8
2023-01-21T08:42:00.316Z,11.8
2023-01-21T08:43:02.276Z,11.8
2023-01-21T08:44:00.314Z,11.8
2023-01-21T08:45:00.334Z,11.8
2023-01-21T08:46:00.406Z,11.1
2023-01-21T08:47:00.588Z,11.1
2023-01-21T08:48:01.336Z,11.1
2023-01-21T08:49:00.355Z,11.1
2023-01-21T08:50:00.274Z,11.1
2023-01-21T08:51:00.359Z,12.3
2023-01-21T08:52:00.278Z,12.3
2023-01-21T08:53:00.396Z,12.3
2023-01-21T08:54:00.324Z,12.3
2023-01-21T08:55:00.352Z,12.3
2023-01-21T08:56:02.649Z,12.2
2023-01-21T08:57:00.425Z,12.2
2023-01-21T08:58:00.279Z,12.2
2023-01-21T08:59:00.427Z,12.2
2023-01-21T09:00:00.287Z,12.2
2023-01-21T09:01:09.797Z,12.5
2023-01-21T09:02:00.340Z,12.5
2023-01-21T09:03:00.283Z,12.5
2023-01-21T09:04:00.944Z,12.5
2023-01-21T09:05:00.263Z,12.5
2023-01-21T09:06:00.618Z,12.4
2023-01-21T09:07:00.356Z,12.4
2023-01-21T09:08:00.302Z,12.4
2023-01-21T09:09:00.427Z,12.4
2023-01-21T09:10:00.365Z,12.4
2023-01-21T09:11:01.930Z,11.9
2023-01-21T09:12:00.442Z,11.9
2023-01-21T09:13:04.654Z,11.9
2023-01-21T09:14:00.361Z,11.9
2023-01-21T09:15:00.428Z,11.9
2023-01-21T09:16:00.673Z,12.6
2023-01-21T09:17:00.401Z,12.6
2023-01-21T09:18:00.426Z,12.6
2023-01-21T09:19:00.796Z,12.6
2023-01-21T09:20:00.386Z,12.6
2023-01-21T09:21:01.323Z,11.7
2023-01-21T09:22:00.383Z,11.7
2023-01-21T09:23:00.401Z,11.7
2023-01-21T09:24:00.901Z,11.7
2023-01-21T09:25:00.380Z,11.7
2023-01-21T09:26:01.985Z,12.2
2023-01-21T09:27:00.417Z,12.2
2023-01-21T09:28:00.391Z,12.2
2023-01-21T09:29:00.915Z,12.2
2023-01-21T09:30:00.451Z,12.2
2023-01-21T09:31:03.686Z,11.3
2023-01-21T09:32:01.461Z,11.3
2023-01-21T09:33:00.394Z,11.3
2023-01-21T09:34:02.747Z,11.3
2023-01-21T09:35:00.435Z,11.3
2023-01-21T09:36:02.274Z,11.9
2023-01-21T09:37:00.438Z,11.9
2023-01-21T09:38:00.425Z,11.9
2023-01-21T09:39:00.908Z,11.9
2023-01-21T09:40:00.826Z,11.9
2023-01-21T09:41:11.089Z,10.3
2023-01-21T09:42:00.483Z,10.3
2023-01-21T09:43:10.277Z,10.3
2023-01-21T09:44:11.105Z,10.3
2023-01-21T09:45:02.761Z,10.3
2023-01-21T09:46:06.367Z,10.5
2023-01-21T09:47:03.328Z,10.5
2023-01-21T09:48:02.325Z,10.5
2023-01-21T09:49:02.772Z,10.5
2023-01-21T09:50:13.848Z,10.5
2023-01-21T09:51:08.789Z,10.7
2023-01-21T09:52:20.334Z,10.7
2023-01-21T09:53:09.768Z,10.7
2023-01-21T09:54:03.219Z,10.7
2023-01-21T09:55:01.640Z,10.7
2023-01-21T09:56:03.599Z,10.4
2023-01-21T09:57:20.310Z,10.4
2023-01-21T09:58:15.223Z,10.4
2023-01-21T09:59:09.252Z,10.4
2023-01-21T10:00:15.647Z,10.4
2023-01-21T10:01:14.510Z,9.9
2023-01-21T10:02:05.498Z,9.9
2023-01-21T10:03:15.517Z,9.9
2023-01-21T10:04:13.310Z,9.9
2023-01-21T10:05:13.603Z,9.9
2023-01-21T10:06:07.868Z,9.2
2023-01-21T10:07:09.604Z,9.2
2023-01-21T10:08:20.361Z,9.2
2023-01-21T10:09:17.035Z,9.2
2023-01-21T10:10:20.383Z,9.2
2023-01-21T10:11:18.201Z,9.1
2023-01-21T10:12:11.371Z,9.1
2023-01-21T10:13:20.304Z,9.1
2023-01-21T10:14:20.368Z,9.1
2023-01-21T10:15:20.324Z,9.1
2023-01-21T10:16:17.298Z,8.6
2023-01-21T10:17:09.691Z,8.6
2023-01-21T10:18:03.764Z,8.6
2023-01-21T10:19:04.043Z,8.6
2023-01-21T10:20:12.510Z,8.6
2023-01-21T10:21:10.389Z,10.5
2023-01-21T10:22:08.715Z,10.5
2023-01-21T10:23:06.454Z,10.5
2023-01-21T10:24:08.447Z,10.5
2023-01-21T10:25:12.215Z,10.5
2023-01-21T10:26:06.817Z,8.5
2023-01-21T10:27:00.486Z,8.5
2023-01-21T10:28:13.288Z,8.5
2023-01-21T10:29:00.782Z,8.5
2023-01-21T10:30:17.075Z,8.5
2023-01-21T10:31:17.272Z,7.9
2023-01-21T10:32:03.443Z,7.9
2023-01-21T10:33:00.558Z,7.9
2023-01-21T10:34:00.664Z,7.9
2023-01-21T10:35:00.383Z,7.9
2023-01-21T10:36:11.370Z,7.5
2023-01-21T10:37:14.401Z,7.5
2023-01-21T10:38:08.467Z,7.5
2023-01-21T10:39:19.584Z,7.5
2023-01-21T10:40:20.304Z,7.5
2023-01-21T10:41:14.607Z,7.4
2023-01-21T10:42:11.502Z,7.4
2023-01-21T10:43:08.186Z,7.4
2023-01-21T10:44:20.283Z,7.4
2023-01-21T10:45:11.347Z,7.4
2023-01-21T10:46:10.367Z,7.0
2023-01-21T10:47:15.907Z,7.0
2023-01-21T10:48:04.486Z,7.0
2023-01-21T10:49:10.370Z,7.0
2023-01-21T10:50:19.190Z,7.0
2023-01-21T10:51:12.047Z,7.3
2023-01-21T10:52:10.540Z,7.3
2023-01-21T10:53:10.978Z,7.3
2023-01-21T10:54:13.662Z,7.3
2023-01-21T10:55:18.032Z,7.3
2023-01-21T10:56:08.112Z,7.2
2023-01-21T10:57:12.697Z,7.2
2023-01-21T10:58:04.392Z,7.2
2023-01-21T10:59:05.654Z,7.2
2023-01-21T11:00:02.594Z,7.2
2023-01-21T11:01:04.249Z,6.9
2023-01-21T11:02:07.809Z,6.9
2023-01-21T11:03:08.732Z,6.9
2023-01-21T11:04:13.603Z,6.9
2023-01-21T11:05:03.102Z,6.9
2023-01-21T11:06:02.282Z,6.3
2023-01-21T11:07:04.580Z,6.3
2023-01-21T11:08:01.256Z,6.3
2023-01-21T11:09:03.983Z,6.3
2023-01-21T11:10:02.247Z,6.3
2023-01-21T11:11:01.989Z,5.9
2023-01-21T11:12:00.426Z,5.9
2023-01-21T11:13:00.381Z,5.9
2023-01-21T11:14:00.638Z,5.9
2023-01-21T11:15:06.493Z,5.9
2023-01-21T11:16:01.319Z,6.1
2023-01-21T11:17:00.580Z,6.1
2023-01-21T11:18:20.300Z,6.1
2023-01-21T11:19:01.524Z,6.1
2023-01-21T11:20:04.060Z,6.1
2023-01-21T11:21:13.248Z,6.0
2023-01-21T11:22:04.482Z,6.0
2023-01-21T11:23:04.494Z,6.0
2023-01-21T11:24:03.488Z,6.0
2023-01-21T11:25:00.413Z,6.0
2023-01-21T11:26:02.304Z,5.7
2023-01-21T11:27:00.818Z,5.7
2023-01-21T11:28:01.569Z,5.7
2023-01-21T11:29:06.951Z,5.7
2023-01-21T11:30:00.711Z,5.7
2023-01-21T11:31:05.192Z,5.8
2023-01-21T11:32:09.504Z,5.8
2023-01-21T11:33:20.308Z,5.8
2023-01-21T11:34:06.199Z,5.8
2023-01-21T11:35:08.211Z,5.8
2023-01-21T11:36:11.030Z,5.8
2023-01-21T11:37:02.539Z,5.8
2023-01-21T11:38:00.469Z,5.8
2023-01-21T11:39:03.934Z,5.8
2023-01-21T11:40:10.593Z,5.8
2023-01-21T11:41:11.147Z,5.9
2023-01-21T11:42:05.784Z,5.9
2023-01-21T11:43:00.375Z,5.9
2023-01-21T11:44:18.497Z,5.9
2023-01-21T11:45:13.299Z,5.9
2023-01-21T11:46:20.395Z,6.0
2023-01-21T11:47:00.432Z,6.0
2023-01-21T11:48:00.810Z,6.0
2023-01-21T11:49:07.658Z,6.0
2023-01-21T11:50:13.667Z,6.0
2023-01-21T11:51:07.782Z,5.9
2023-01-21T11:52:12.907Z,5.9
2023-01-21T11:53:07.848Z,5.9
2023-01-21T11:54:20.310Z,5.9
2023-01-21T11:55:02.206Z,5.9
2023-01-21T11:56:02.408Z,6.2
2023-01-21T11:57:01.737Z,6.2
2023-01-21T11:58:00.473Z,6.2
2023-01-21T11:59:01.006Z,6.2
2023-01-21T12:00:07.291Z,6.2
2023-01-21T12:01:03.306Z,6.3
2023-01-21T12:02:20.286Z,6.3
2023-01-21T12:03:04.577Z,6.3
2023-01-21T12:04:00.598Z,6.3
2023-01-21T12:05:05.269Z,6.3
2023-01-21T12:06:01.087Z,6.9
2023-01-21T12:07:01.252Z,6.9
2023-01-21T12:08:02.749Z,6.9
2023-01-21T12:09:03.716Z,6.9
2023-01-21T12:10:07.186Z,6.9
2023-01-21T12:11:02.260Z,6.0
2023-01-21T12:12:09.892Z,6.0
2023-01-21T12:13:11.345Z,6.0
2023-01-21T12:14:20.272Z,6.0
2023-01-21T12:15:13.686Z,6.0
2023-01-21T12:16:20.377Z,6.3
2023-01-21T12:17:11.428Z,6.3
2023-01-21T12:18:10.466Z,6.3
2023-01-21T12:19:13.707Z,6.3
2023-01-21T12:20:18.105Z,6.4
2023-01-21T12:21:07.888Z,6.4
2023-01-21T12:22:15.101Z,6.4
2023-01-21T12:23:10.320Z,6.4
2023-01-21T12:24:18.857Z,6.4
2023-01-21T12:25:12.241Z,6.4
2023-01-21T12:26:13.944Z,6.7
2023-01-21T12:27:20.318Z,6.7
2023-01-21T12:28:06.127Z,6.7
2023-01-21T12:29:13.747Z,6.7
2023-01-21T12:30:10.895Z,6.7
2023-01-21T12:31:16.675Z,6.6
2023-01-21T12:32:10.764Z,6.6
2023-01-21T12:33:09.739Z,6.6
2023-01-21T12:34:11.189Z,6.6
2023-01-21T12:35:10.648Z,6.7
2023-01-21T12:36:07.778Z,6.7
2023-01-21T12:37:05.685Z,6.7
2023-01-21T12:38:05.063Z,6.7
2023-01-21T12:39:14.798Z,6.7
2023-01-21T12:40:12.170Z,6.4
2023-01-21T12:41:07.889Z,6.4
2023-01-21T12:42:01.146Z,6.4
2023-01-21T12:43:07.464Z,6.4
2023-01-21T12:44:13.367Z,6.4
2023-01-21T12:45:05.365Z,6.4
2023-01-21T12:46:10.852Z,6.4
2023-01-21T12:47:07.713Z,6.4
2023-01-21T12:48:08.659Z,6.4
2023-01-21T12:49:06.275Z,6.4
2023-01-21T12:50:09.925Z,6.5
2023-01-21T12:51:05.940Z,6.5
2023-01-21T12:52:11.174Z,6.5
2023-01-21T12:53:20.334Z,6.5
2023-01-21T12:54:20.326Z,6.5
2023-01-21T12:55:10.929Z,7.0
2023-01-21T12:56:03.674Z,7.0
2023-01-21T12:57:11.846Z,7.0
2023-01-21T12:58:04.660Z,7.0
2023-01-21T12:59:07.309Z,7.0
2023-01-21T13:00:17.544Z,7.0
2023-01-21T13:01:06.406Z,7.0
2023-01-21T13:02:14.231Z,7.0
2023-01-21T13:03:10.366Z,7.0
2023-01-21T13:04:17.865Z,7.0
2023-01-21T13:05:11.487Z,7.8
2023-01-21T13:06:08.056Z,7.8
2023-01-21T13:07:20.319Z,7.8
2023-01-21T13:08:20.335Z,7.8
2023-01-21T13:09:06.447Z,7.8
2023-01-21T13:10:13.581Z,7.4
2023-01-21T13:11:20.336Z,7.4
2023-01-21T13:12:13.211Z,7.4
2023-01-21T13:13:12.611Z,7.4
2023-01-21T13:14:16.307Z,7.4
2023-01-21T13:15:12.525Z,8.3
2023-01-21T13:16:06.628Z,8.3
2023-01-21T13:17:06.161Z,8.3
2023-01-21T13:18:07.431Z,8.3
2023-01-21T13:19:00.482Z,8.3
2023-01-21T13:20:11.490Z,9.2
2023-01-21T13:21:15.302Z,9.2
2023-01-21T13:22:17.691Z,9.2
2023-01-21T13:23:10.390Z,9.2
2023-01-21T13:24:10.373Z,9.2
2023-01-21T13:25:18.494Z,8.9